Fawn Grove, Pennsylvania
Current Conditions -  °F | °C
As of 11:53 PM on Wednesday 22 Oct 2014 (Local Time) from KTHV Reporting Station
Overcast Overcast  
Wind Chill: 51°   Ceiling: 2800
Heat Index: 51°   Visibility: 10mi
Dew Point: 43°   Wind: 13mph
Humidity: 74%   Direction: 310°NW
Pressure: 29.92"   Gusts: 23mph
Location:  39.73°N, 76.45°W
Report Text: KTHV 230353Z AUTO 31011G20KT 10SM OVC028 11/06 A2992 RMK AO2 SLP135 T01060061
Loading
Personal Weather Stations






























Interactive Weather Map
Tropical Storm Tracking
New forecast layout! Learn more

10-Day Weather Forecast

Advertisements
Track Severe Weather on mobile